sensor_id;sensor_type;location;lat;lon;timestamp;temperature;humidity
33988;DHT22;37428;53.580;-1.666;2022-08-03T00:02:57;19.30;82.20
33988;DHT22;37428;53.580;-1.666;2022-08-03T00:06:19;19.30;82.60
33988;DHT22;37428;53.580;-1.666;2022-08-03T00:09:32;19.30;83.00
33988;DHT22;37428;53.580;-1.666;2022-08-03T00:12:40;19.30;83.30
33988;DHT22;37428;53.580;-1.666;2022-08-03T00:19:15;19.30;83.80
33988;DHT22;37428;53.580;-1.666;2022-08-03T00:22:21;19.30;84.10
33988;DHT22;37428;53.580;-1.666;2022-08-03T00:25:27;19.30;84.30
33988;DHT22;37428;53.580;-1.666;2022-08-03T00:32:33;19.30;84.60
33988;DHT22;37428;53.580;-1.666;2022-08-03T00:35:40;19.30;84.80
33988;DHT22;37428;53.580;-1.666;2022-08-03T00:38:53;19.40;85.00
33988;DHT22;37428;53.580;-1.666;2022-08-03T00:45:50;19.40;85.20
33988;DHT22;37428;53.580;-1.666;2022-08-03T00:48:56;19.40;85.20
33988;DHT22;37428;53.580;-1.666;2022-08-03T00:52:23;19.40;85.40
33988;DHT22;37428;53.580;-1.666;2022-08-03T00:55:29;19.40;85.20
33988;DHT22;37428;53.580;-1.666;2022-08-03T00:58:56;19.50;85.20
33988;DHT22;37428;53.580;-1.666;2022-08-03T01:02:01;19.50;85.20
33988;DHT22;37428;53.580;-1.666;2022-08-03T01:05:04;19.50;85.10
33988;DHT22;37428;53.580;-1.666;2022-08-03T01:08:25;19.50;85.40
33988;DHT22;37428;53.580;-1.666;2022-08-03T01:11:47;19.50;85.80
33988;DHT22;37428;53.580;-1.666;2022-08-03T01:18:50;19.50;86.20
33988;DHT22;37428;53.580;-1.666;2022-08-03T01:23:02;19.50;86.40
33988;DHT22;37428;53.580;-1.666;2022-08-03T01:26:18;19.50;86.40
33988;DHT22;37428;53.580;-1.666;2022-08-03T01:33:25;19.50;86.30
33988;DHT22;37428;53.580;-1.666;2022-08-03T01:36:55;19.50;85.90
33988;DHT22;37428;53.580;-1.666;2022-08-03T01:40:13;19.50;86.00
33988;DHT22;37428;53.580;-1.666;2022-08-03T01:43:37;19.50;85.60
33988;DHT22;37428;53.580;-1.666;2022-08-03T01:47:28;19.50;85.40
33988;DHT22;37428;53.580;-1.666;2022-08-03T01:50:28;19.50;85.50
33988;DHT22;37428;53.580;-1.666;2022-08-03T01:53:47;19.50;85.70
33988;DHT22;37428;53.580;-1.666;2022-08-03T02:00:31;19.50;85.80
33988;DHT22;37428;53.580;-1.666;2022-08-03T02:03:40;19.50;86.30
33988;DHT22;37428;53.580;-1.666;2022-08-03T02:07:04;19.40;86.70
33988;DHT22;37428;53.580;-1.666;2022-08-03T02:10:24;19.40;87.10
33988;DHT22;37428;53.580;-1.666;2022-08-03T02:14:01;19.40;87.10
33988;DHT22;37428;53.580;-1.666;2022-08-03T02:17:18;19.30;87.20
33988;DHT22;37428;53.580;-1.666;2022-08-03T02:20:48;19.30;87.60
33988;DHT22;37428;53.580;-1.666;2022-08-03T02:24:05;19.30;87.60
33988;DHT22;37428;53.580;-1.666;2022-08-03T02:27:17;19.30;88.10
33988;DHT22;37428;53.580;-1.666;2022-08-03T02:30:44;19.30;89.00
33988;DHT22;37428;53.580;-1.666;2022-08-03T02:34:08;19.20;89.80
33988;DHT22;37428;53.580;-1.666;2022-08-03T02:40:48;19.00;91.50
33988;DHT22;37428;53.580;-1.666;2022-08-03T02:47:37;18.90;92.00
33988;DHT22;37428;53.580;-1.666;2022-08-03T02:51:05;18.90;92.60
33988;DHT22;37428;53.580;-1.666;2022-08-03T02:55:46;18.90;92.90
33988;DHT22;37428;53.580;-1.666;2022-08-03T02:57:51;18.90;93.00
33988;DHT22;37428;53.580;-1.666;2022-08-03T03:01:00;18.80;92.80
33988;DHT22;37428;53.580;-1.666;2022-08-03T03:04:24;18.80;93.20
33988;DHT22;37428;53.580;-1.666;2022-08-03T03:07:34;18.70;93.70
33988;DHT22;37428;53.580;-1.666;2022-08-03T03:11:06;18.70;93.70
33988;DHT22;37428;53.580;-1.666;2022-08-03T03:14:23;18.70;93.10
33988;DHT22;37428;53.580;-1.666;2022-08-03T03:19:17;18.60;92.30
33988;DHT22;37428;53.580;-1.666;2022-08-03T03:21:31;18.60;91.40
33988;DHT22;37428;53.580;-1.666;2022-08-03T03:26:10;18.60;91.00
33988;DHT22;37428;53.580;-1.666;2022-08-03T03:35:39;18.50;88.60
33988;DHT22;37428;53.580;-1.666;2022-08-03T03:38:53;18.40;88.30
33988;DHT22;37428;53.580;-1.666;2022-08-03T03:42:44;18.30;87.70
33988;DHT22;37428;53.580;-1.666;2022-08-03T03:46:04;18.30;87.00
33988;DHT22;37428;53.580;-1.666;2022-08-03T03:51:36;18.30;87.30
33988;DHT22;37428;53.580;-1.666;2022-08-03T03:53:53;18.30;87.10
33988;DHT22;37428;53.580;-1.666;2022-08-03T03:58:31;18.20;87.20
33988;DHT22;37428;53.580;-1.666;2022-08-03T04:00:35;18.10;86.80
33988;DHT22;37428;53.580;-1.666;2022-08-03T04:04:10;18.20;86.80
33988;DHT22;37428;53.580;-1.666;2022-08-03T04:07:55;18.10;85.90
33988;DHT22;37428;53.580;-1.666;2022-08-03T04:18:50;18.10;84.70
33988;DHT22;37428;53.580;-1.666;2022-08-03T04:22:51;18.10;84.50
33988;DHT22;37428;53.580;-1.666;2022-08-03T04:26:07;18.10;84.20
33988;DHT22;37428;53.580;-1.666;2022-08-03T04:29:40;18.10;83.60
33988;DHT22;37428;53.580;-1.666;2022-08-03T04:34:30;18.10;84.10
33988;DHT22;37428;53.580;-1.666;2022-08-03T04:36:57;18.10;83.20
33988;DHT22;37428;53.580;-1.666;2022-08-03T04:40:12;18.00;83.20
33988;DHT22;37428;53.580;-1.666;2022-08-03T04:44:03;18.00;81.80
33988;DHT22;37428;53.580;-1.666;2022-08-03T04:47:07;18.00;82.20
33988;DHT22;37428;53.580;-1.666;2022-08-03T04:50:21;17.90;81.90
33988;DHT22;37428;53.580;-1.666;2022-08-03T04:57:28;17.90;82.30
33988;DHT22;37428;53.580;-1.666;2022-08-03T05:04:50;17.80;81.70
33988;DHT22;37428;53.580;-1.666;2022-08-03T05:12:58;17.60;82.20
33988;DHT22;37428;53.580;-1.666;2022-08-03T05:18:40;17.60;82.40
33988;DHT22;37428;53.580;-1.666;2022-08-03T05:22:09;17.60;82.50
33988;DHT22;37428;53.580;-1.666;2022-08-03T05:27:14;17.70;82.50
33988;DHT22;37428;53.580;-1.666;2022-08-03T05:33:24;17.70;82.10
33988;DHT22;37428;53.580;-1.666;2022-08-03T05:40:39;17.90;81.50
33988;DHT22;37428;53.580;-1.666;2022-08-03T05:47:53;17.90;79.90
33988;DHT22;37428;53.580;-1.666;2022-08-03T05:51:45;17.90;80.00
33988;DHT22;37428;53.580;-1.666;2022-08-03T06:05:48;18.10;79.10
33988;DHT22;37428;53.580;-1.666;2022-08-03T06:09:18;18.10;79.10
33988;DHT22;37428;53.580;-1.666;2022-08-03T06:12:53;18.20;78.70
33988;DHT22;37428;53.580;-1.666;2022-08-03T06:16:26;18.30;78.20
33988;DHT22;37428;53.580;-1.666;2022-08-03T06:19:59;18.30;76.70
33988;DHT22;37428;53.580;-1.666;2022-08-03T06:26:58;18.40;76.30
33988;DHT22;37428;53.580;-1.666;2022-08-03T06:37:29;18.70;75.10
33988;DHT22;37428;53.580;-1.666;2022-08-03T06:40:46;18.70;73.90
33988;DHT22;37428;53.580;-1.666;2022-08-03T06:44:15;18.80;73.50
33988;DHT22;37428;53.580;-1.666;2022-08-03T06:47:34;18.90;73.60
33988;DHT22;37428;53.580;-1.666;2022-08-03T06:50:42;19.00;72.20
33988;DHT22;37428;53.580;-1.666;2022-08-03T06:54:00;19.00;71.60
33988;DHT22;37428;53.580;-1.666;2022-08-03T06:57:19;19.00;72.50
33988;DHT22;37428;53.580;-1.666;2022-08-03T07:02:11;19.00;72.80
33988;DHT22;37428;53.580;-1.666;2022-08-03T07:04:41;19.00;72.40
33988;DHT22;37428;53.580;-1.666;2022-08-03T07:07:56;19.20;72.00
33988;DHT22;37428;53.580;-1.666;2022-08-03T07:14:47;19.70;71.30
33988;DHT22;37428;53.580;-1.666;2022-08-03T07:17:51;19.90;70.00
33988;DHT22;37428;53.580;-1.666;2022-08-03T07:20:57;20.10;68.80
33988;DHT22;37428;53.580;-1.666;2022-08-03T07:24:08;20.60;67.00
33988;DHT22;37428;53.580;-1.666;2022-08-03T07:27:10;21.10;66.70
33988;DHT22;37428;53.580;-1.666;2022-08-03T07:30:21;21.30;65.50
33988;DHT22;37428;53.580;-1.666;2022-08-03T07:33:34;21.20;64.60
33988;DHT22;37428;53.580;-1.666;2022-08-03T07:36:37;21.10;65.00
33988;DHT22;37428;53.580;-1.666;2022-08-03T07:39:54;20.90;66.40
33988;DHT22;37428;53.580;-1.666;2022-08-03T07:43:07;21.00;66.10
33988;DHT22;37428;53.580;-1.666;2022-08-03T07:46:33;21.00;65.30
33988;DHT22;37428;53.580;-1.666;2022-08-03T07:49:48;21.20;64.60
33988;DHT22;37428;53.580;-1.666;2022-08-03T07:52:52;21.40;63.00
33988;DHT22;37428;53.580;-1.666;2022-08-03T07:55:59;21.70;62.10
33988;DHT22;37428;53.580;-1.666;2022-08-03T07:59:25;21.90;61.20
33988;DHT22;37428;53.580;-1.666;2022-08-03T08:02:59;22.10;60.00
33988;DHT22;37428;53.580;-1.666;2022-08-03T08:06:34;22.20;59.00
33988;DHT22;37428;53.580;-1.666;2022-08-03T08:09:43;22.40;59.70
33988;DHT22;37428;53.580;-1.666;2022-08-03T08:13:01;22.60;58.80
33988;DHT22;37428;53.580;-1.666;2022-08-03T08:16:34;22.80;57.60
33988;DHT22;37428;53.580;-1.666;2022-08-03T08:23:25;22.90;57.30
33988;DHT22;37428;53.580;-1.666;2022-08-03T08:27:04;23.10;55.90
33988;DHT22;37428;53.580;-1.666;2022-08-03T08:30:11;23.20;52.20
33988;DHT22;37428;53.580;-1.666;2022-08-03T08:33:28;23.30;52.30
33988;DHT22;37428;53.580;-1.666;2022-08-03T08:36:34;23.30;51.00
33988;DHT22;37428;53.580;-1.666;2022-08-03T08:39:39;23.70;51.80
33988;DHT22;37428;53.580;-1.666;2022-08-03T08:42:46;23.70;50.50
33988;DHT22;37428;53.580;-1.666;2022-08-03T08:45:53;23.80;51.00
33988;DHT22;37428;53.580;-1.666;2022-08-03T08:48:59;23.50;50.50
33988;DHT22;37428;53.580;-1.666;2022-08-03T08:52:06;23.30;50.00
33988;DHT22;37428;53.580;-1.666;2022-08-03T08:55:17;23.70;50.70
33988;DHT22;37428;53.580;-1.666;2022-08-03T08:58:21;23.90;49.20
33988;DHT22;37428;53.580;-1.666;2022-08-03T09:01:29;24.10;48.90
33988;DHT22;37428;53.580;-1.666;2022-08-03T09:04:38;24.30;48.60
33988;DHT22;37428;53.580;-1.666;2022-08-03T09:07:41;24.50;46.30
33988;DHT22;37428;53.580;-1.666;2022-08-03T09:10:49;24.50;46.30
33988;DHT22;37428;53.580;-1.666;2022-08-03T09:13:54;24.30;46.40
33988;DHT22;37428;53.580;-1.666;2022-08-03T09:16:57;24.50;47.70
33988;DHT22;37428;53.580;-1.666;2022-08-03T09:20:06;24.70;46.70
33988;DHT22;37428;53.580;-1.666;2022-08-03T09:23:09;24.70;46.70
33988;DHT22;37428;53.580;-1.666;2022-08-03T09:26:19;24.60;46.40
33988;DHT22;37428;53.580;-1.666;2022-08-03T09:29:22;24.60;45.30
33988;DHT22;37428;53.580;-1.666;2022-08-03T09:32:24;24.60;46.50
33988;DHT22;37428;53.580;-1.666;2022-08-03T09:35:50;24.40;45.90
33988;DHT22;37428;53.580;-1.666;2022-08-03T09:39:03;24.20;46.30
33988;DHT22;37428;53.580;-1.666;2022-08-03T09:42:08;24.20;47.10
33988;DHT22;37428;53.580;-1.666;2022-08-03T09:45:26;24.40;48.40
33988;DHT22;37428;53.580;-1.666;2022-08-03T09:48:30;24.60;46.70
33988;DHT22;37428;53.580;-1.666;2022-08-03T09:51:48;24.80;46.60
33988;DHT22;37428;53.580;-1.666;2022-08-03T09:55:06;24.50;47.30
33988;DHT22;37428;53.580;-1.666;2022-08-03T09:58:10;24.20;46.60
33988;DHT22;37428;53.580;-1.666;2022-08-03T10:01:33;24.30;47.20
33988;DHT22;37428;53.580;-1.666;2022-08-03T10:04:46;24.10;46.50
33988;DHT22;37428;53.580;-1.666;2022-08-03T10:07:51;23.70;47.80
33988;DHT22;37428;53.580;-1.666;2022-08-03T10:10:56;23.80;48.60
33988;DHT22;37428;53.580;-1.666;2022-08-03T10:14:10;24.00;48.90
33988;DHT22;37428;53.580;-1.666;2022-08-03T10:17:33;24.40;47.80
33988;DHT22;37428;53.580;-1.666;2022-08-03T10:20:58;24.40;47.30
33988;DHT22;37428;53.580;-1.666;2022-08-03T10:24:03;24.50;47.50
33988;DHT22;37428;53.580;-1.666;2022-08-03T10:27:09;24.90;46.60
33988;DHT22;37428;53.580;-1.666;2022-08-03T10:30:13;25.00;46.30
33988;DHT22;37428;53.580;-1.666;2022-08-03T10:33:18;25.30;47.60
33988;DHT22;37428;53.580;-1.666;2022-08-03T10:36:29;25.50;46.40
33988;DHT22;37428;53.580;-1.666;2022-08-03T10:39:31;25.00;45.40
33988;DHT22;37428;53.580;-1.666;2022-08-03T10:42:33;24.60;46.20
33988;DHT22;37428;53.580;-1.666;2022-08-03T10:45:40;24.40;46.50
33988;DHT22;37428;53.580;-1.666;2022-08-03T10:48:49;24.70;46.40
33988;DHT22;37428;53.580;-1.666;2022-08-03T10:51:53;24.30;47.20
33988;DHT22;37428;53.580;-1.666;2022-08-03T10:54:55;24.30;45.90
33988;DHT22;37428;53.580;-1.666;2022-08-03T10:58:14;24.30;46.80
33988;DHT22;37428;53.580;-1.666;2022-08-03T11:01:55;24.50;47.20
33988;DHT22;37428;53.580;-1.666;2022-08-03T11:05:24;24.70;46.10
33988;DHT22;37428;53.580;-1.666;2022-08-03T11:08:31;24.40;46.30
33988;DHT22;37428;53.580;-1.666;2022-08-03T11:11:41;24.70;44.60
33988;DHT22;37428;53.580;-1.666;2022-08-03T11:14:48;24.90;45.90
33988;DHT22;37428;53.580;-1.666;2022-08-03T11:18:07;25.20;43.40
33988;DHT22;37428;53.580;-1.666;2022-08-03T11:21:10;25.50;43.50
33988;DHT22;37428;53.580;-1.666;2022-08-03T11:24:26;25.90;42.60
33988;DHT22;37428;53.580;-1.666;2022-08-03T11:28:38;26.20;41.70
33988;DHT22;37428;53.580;-1.666;2022-08-03T11:31:47;26.50;39.70
33988;DHT22;37428;53.580;-1.666;2022-08-03T11:35:08;26.60;38.80
33988;DHT22;37428;53.580;-1.666;2022-08-03T11:38:17;26.80;39.40
33988;DHT22;37428;53.580;-1.666;2022-08-03T11:41:32;27.00;37.80
33988;DHT22;37428;53.580;-1.666;2022-08-03T11:44:41;27.10;36.40
33988;DHT22;37428;53.580;-1.666;2022-08-03T11:47:46;27.10;36.20
33988;DHT22;37428;53.580;-1.666;2022-08-03T11:51:06;27.20;36.10
33988;DHT22;37428;53.580;-1.666;2022-08-03T11:54:09;27.00;37.20
33988;DHT22;37428;53.580;-1.666;2022-08-03T11:57:27;26.90;39.00
33988;DHT22;37428;53.580;-1.666;2022-08-03T12:00:32;26.80;36.60
33988;DHT22;37428;53.580;-1.666;2022-08-03T12:03:36;26.50;37.90
33988;DHT22;37428;53.580;-1.666;2022-08-03T12:06:42;26.70;38.70
33988;DHT22;37428;53.580;-1.666;2022-08-03T12:10:09;27.00;38.30
33988;DHT22;37428;53.580;-1.666;2022-08-03T12:13:12;27.10;37.70
33988;DHT22;37428;53.580;-1.666;2022-08-03T12:16:19;27.00;38.00
33988;DHT22;37428;53.580;-1.666;2022-08-03T12:19:22;26.60;38.90
33988;DHT22;37428;53.580;-1.666;2022-08-03T12:22:40;26.60;38.70
33988;DHT22;37428;53.580;-1.666;2022-08-03T12:25:43;26.60;39.20
33988;DHT22;37428;53.580;-1.666;2022-08-03T12:28:47;26.90;38.30
33988;DHT22;37428;53.580;-1.666;2022-08-03T12:31:51;26.30;39.10
33988;DHT22;37428;53.580;-1.666;2022-08-03T12:34:54;25.90;40.60
33988;DHT22;37428;53.580;-1.666;2022-08-03T12:38:00;26.30;41.40
33988;DHT22;37428;53.580;-1.666;2022-08-03T12:41:04;26.60;40.70
33988;DHT22;37428;53.580;-1.666;2022-08-03T12:44:08;27.00;40.30
33988;DHT22;37428;53.580;-1.666;2022-08-03T12:47:11;27.00;40.00
33988;DHT22;37428;53.580;-1.666;2022-08-03T12:50:23;27.30;39.50
33988;DHT22;37428;53.580;-1.666;2022-08-03T12:53:28;27.60;38.10
33988;DHT22;37428;53.580;-1.666;2022-08-03T12:56:56;27.70;38.40
33988;DHT22;37428;53.580;-1.666;2022-08-03T13:00:11;27.30;37.80
33988;DHT22;37428;53.580;-1.666;2022-08-03T13:03:14;27.60;38.10
33988;DHT22;37428;53.580;-1.666;2022-08-03T13:06:17;27.40;37.10
33988;DHT22;37428;53.580;-1.666;2022-08-03T13:09:21;27.20;38.20
33988;DHT22;37428;53.580;-1.666;2022-08-03T13:12:26;27.60;38.00
33988;DHT22;37428;53.580;-1.666;2022-08-03T13:15:29;27.70;36.70
33988;DHT22;37428;53.580;-1.666;2022-08-03T13:18:31;27.70;35.80
33988;DHT22;37428;53.580;-1.666;2022-08-03T13:21:33;27.60;35.70
33988;DHT22;37428;53.580;-1.666;2022-08-03T13:24:39;27.50;36.50
33988;DHT22;37428;53.580;-1.666;2022-08-03T13:27:41;28.00;36.00
33988;DHT22;37428;53.580;-1.666;2022-08-03T13:30:44;28.30;34.80
33988;DHT22;37428;53.580;-1.666;2022-08-03T13:33:46;28.30;34.10
33988;DHT22;37428;53.580;-1.666;2022-08-03T13:36:48;28.10;34.40
33988;DHT22;37428;53.580;-1.666;2022-08-03T13:39:52;28.20;34.60
33988;DHT22;37428;53.580;-1.666;2022-08-03T13:42:54;28.30;34.20
33988;DHT22;37428;53.580;-1.666;2022-08-03T13:45:56;28.40;34.80
33988;DHT22;37428;53.580;-1.666;2022-08-03T13:49:12;28.50;33.80
33988;DHT22;37428;53.580;-1.666;2022-08-03T13:52:14;28.60;34.10
33988;DHT22;37428;53.580;-1.666;2022-08-03T13:55:18;28.10;33.70
33988;DHT22;37428;53.580;-1.666;2022-08-03T13:58:22;27.90;34.70
33988;DHT22;37428;53.580;-1.666;2022-08-03T14:01:25;27.90;35.60
33988;DHT22;37428;53.580;-1.666;2022-08-03T14:04:27;28.10;35.10
33988;DHT22;37428;53.580;-1.666;2022-08-03T14:07:29;27.90;33.70
33988;DHT22;37428;53.580;-1.666;2022-08-03T14:10:34;27.80;35.20
33988;DHT22;37428;53.580;-1.666;2022-08-03T14:13:36;27.90;35.10
33988;DHT22;37428;53.580;-1.666;2022-08-03T14:16:46;28.00;35.00
33988;DHT22;37428;53.580;-1.666;2022-08-03T14:19:48;28.00;35.20
33988;DHT22;37428;53.580;-1.666;2022-08-03T14:22:51;28.20;34.60
33988;DHT22;37428;53.580;-1.666;2022-08-03T14:25:55;28.20;35.00
33988;DHT22;37428;53.580;-1.666;2022-08-03T14:28:58;28.40;35.00
33988;DHT22;37428;53.580;-1.666;2022-08-03T14:31:59;28.70;33.10
33988;DHT22;37428;53.580;-1.666;2022-08-03T14:35:02;28.70;33.40
33988;DHT22;37428;53.580;-1.666;2022-08-03T14:38:04;28.70;32.40
33988;DHT22;37428;53.580;-1.666;2022-08-03T14:41:10;28.50;31.80
33988;DHT22;37428;53.580;-1.666;2022-08-03T14:44:12;28.60;32.30
33988;DHT22;37428;53.580;-1.666;2022-08-03T14:47:16;28.60;32.30
33988;DHT22;37428;53.580;-1.666;2022-08-03T14:50:18;28.50;32.50
33988;DHT22;37428;53.580;-1.666;2022-08-03T14:53:21;28.50;32.70
33988;DHT22;37428;53.580;-1.666;2022-08-03T14:56:24;28.20;33.90
33988;DHT22;37428;53.580;-1.666;2022-08-03T14:59:27;28.40;34.60
33988;DHT22;37428;53.580;-1.666;2022-08-03T15:02:30;28.40;35.00
33988;DHT22;37428;53.580;-1.666;2022-08-03T15:05:32;28.60;34.80
33988;DHT22;37428;53.580;-1.666;2022-08-03T15:08:35;28.70;33.80
33988;DHT22;37428;53.580;-1.666;2022-08-03T15:11:40;28.60;32.60
33988;DHT22;37428;53.580;-1.666;2022-08-03T15:14:43;28.20;34.30
33988;DHT22;37428;53.580;-1.666;2022-08-03T15:17:45;27.70;36.00
33988;DHT22;37428;53.580;-1.666;2022-08-03T15:20:47;27.60;36.30
33988;DHT22;37428;53.580;-1.666;2022-08-03T15:23:50;27.40;36.90
33988;DHT22;37428;53.580;-1.666;2022-08-03T15:26:55;27.10;38.30
33988;DHT22;37428;53.580;-1.666;2022-08-03T15:29:57;26.90;36.50
33988;DHT22;37428;53.580;-1.666;2022-08-03T15:33:01;26.40;37.50
33988;DHT22;37428;53.580;-1.666;2022-08-03T15:36:04;26.40;38.10
33988;DHT22;37428;53.580;-1.666;2022-08-03T15:39:06;26.60;38.30
33988;DHT22;37428;53.580;-1.666;2022-08-03T15:42:11;26.60;39.00
33988;DHT22;37428;53.580;-1.666;2022-08-03T15:45:13;26.80;37.70
33988;DHT22;37428;53.580;-1.666;2022-08-03T15:48:15;26.40;38.30
33988;DHT22;37428;53.580;-1.666;2022-08-03T15:51:19;26.20;39.40
33988;DHT22;37428;53.580;-1.666;2022-08-03T15:54:21;26.20;38.90
33988;DHT22;37428;53.580;-1.666;2022-08-03T15:57:25;26.30;38.00
33988;DHT22;37428;53.580;-1.666;2022-08-03T16:00:28;26.30;37.20
33988;DHT22;37428;53.580;-1.666;2022-08-03T16:03:33;26.50;36.00
33988;DHT22;37428;53.580;-1.666;2022-08-03T16:06:35;26.60;36.10
33988;DHT22;37428;53.580;-1.666;2022-08-03T16:09:39;26.60;36.30
33988;DHT22;37428;53.580;-1.666;2022-08-03T16:12:43;26.60;35.60
33988;DHT22;37428;53.580;-1.666;2022-08-03T16:15:49;26.40;35.80
33988;DHT22;37428;53.580;-1.666;2022-08-03T16:18:52;26.00;36.50
33988;DHT22;37428;53.580;-1.666;2022-08-03T16:21:55;26.20;36.50
33988;DHT22;37428;53.580;-1.666;2022-08-03T16:24:57;26.30;36.30
33988;DHT22;37428;53.580;-1.666;2022-08-03T16:28:12;26.40;36.40
33988;DHT22;37428;53.580;-1.666;2022-08-03T16:31:14;26.40;37.40
33988;DHT22;37428;53.580;-1.666;2022-08-03T16:34:18;26.50;38.10
33988;DHT22;37428;53.580;-1.666;2022-08-03T16:37:25;26.60;36.90
33988;DHT22;37428;53.580;-1.666;2022-08-03T16:40:27;26.70;37.50
33988;DHT22;37428;53.580;-1.666;2022-08-03T16:43:31;26.70;38.50
33988;DHT22;37428;53.580;-1.666;2022-08-03T16:46:34;26.60;38.30
33988;DHT22;37428;53.580;-1.666;2022-08-03T16:49:36;26.70;39.20
33988;DHT22;37428;53.580;-1.666;2022-08-03T16:52:38;26.70;39.30
33988;DHT22;37428;53.580;-1.666;2022-08-03T16:55:41;26.60;39.20
33988;DHT22;37428;53.580;-1.666;2022-08-03T16:58:44;26.50;38.80
33988;DHT22;37428;53.580;-1.666;2022-08-03T17:01:47;26.50;39.30
33988;DHT22;37428;53.580;-1.666;2022-08-03T17:04:51;26.40;39.60
33988;DHT22;37428;53.580;-1.666;2022-08-03T17:07:57;26.40;40.60
33988;DHT22;37428;53.580;-1.666;2022-08-03T17:11:01;26.20;41.20
33988;DHT22;37428;53.580;-1.666;2022-08-03T17:14:04;26.00;40.80
33988;DHT22;37428;53.580;-1.666;2022-08-03T17:17:13;25.60;41.30
33988;DHT22;37428;53.580;-1.666;2022-08-03T17:20:17;25.50;42.00
33988;DHT22;37428;53.580;-1.666;2022-08-03T17:23:28;25.30;41.30
33988;DHT22;37428;53.580;-1.666;2022-08-03T17:26:34;25.20;41.20
33988;DHT22;37428;53.580;-1.666;2022-08-03T17:29:39;25.00;42.30
33988;DHT22;37428;53.580;-1.666;2022-08-03T17:32:45;24.90;42.90
33988;DHT22;37428;53.580;-1.666;2022-08-03T17:35:52;24.60;42.80
33988;DHT22;37428;53.580;-1.666;2022-08-03T17:38:55;24.40;43.70
33988;DHT22;37428;53.580;-1.666;2022-08-03T17:41:59;24.30;43.10
33988;DHT22;37428;53.580;-1.666;2022-08-03T17:45:06;24.20;42.40
33988;DHT22;37428;53.580;-1.666;2022-08-03T17:48:08;24.00;43.40
33988;DHT22;37428;53.580;-1.666;2022-08-03T17:51:13;23.80;44.00
33988;DHT22;37428;53.580;-1.666;2022-08-03T17:54:19;23.80;44.60
33988;DHT22;37428;53.580;-1.666;2022-08-03T17:57:33;23.70;45.30
33988;DHT22;37428;53.580;-1.666;2022-08-03T18:00:42;23.50;45.10
33988;DHT22;37428;53.580;-1.666;2022-08-03T18:04:03;23.20;45.40
33988;DHT22;37428;53.580;-1.666;2022-08-03T18:07:15;23.00;46.10
33988;DHT22;37428;53.580;-1.666;2022-08-03T18:10:31;22.90;46.40
33988;DHT22;37428;53.580;-1.666;2022-08-03T18:13:48;22.80;47.40
33988;DHT22;37428;53.580;-1.666;2022-08-03T18:16:56;22.70;46.50
33988;DHT22;37428;53.580;-1.666;2022-08-03T18:20:01;22.70;47.20
33988;DHT22;37428;53.580;-1.666;2022-08-03T18:23:29;22.60;48.00
33988;DHT22;37428;53.580;-1.666;2022-08-03T18:26:50;22.60;47.30
33988;DHT22;37428;53.580;-1.666;2022-08-03T18:29:57;22.50;47.60
33988;DHT22;37428;53.580;-1.666;2022-08-03T18:33:03;22.40;47.50
33988;DHT22;37428;53.580;-1.666;2022-08-03T18:36:08;22.30;47.70
33988;DHT22;37428;53.580;-1.666;2022-08-03T18:39:12;22.20;47.70
33988;DHT22;37428;53.580;-1.666;2022-08-03T18:42:15;22.10;48.00
33988;DHT22;37428;53.580;-1.666;2022-08-03T18:45:17;22.10;48.20
33988;DHT22;37428;53.580;-1.666;2022-08-03T18:48:29;22.10;48.50
33988;DHT22;37428;53.580;-1.666;2022-08-03T18:52:14;22.00;49.20
33988;DHT22;37428;53.580;-1.666;2022-08-03T18:55:22;21.80;50.50
33988;DHT22;37428;53.580;-1.666;2022-08-03T18:58:33;21.70;52.10
33988;DHT22;37428;53.580;-1.666;2022-08-03T19:01:38;21.50;52.60
33988;DHT22;37428;53.580;-1.666;2022-08-03T19:04:47;21.40;53.30
33988;DHT22;37428;53.580;-1.666;2022-08-03T19:08:15;21.30;53.70
33988;DHT22;37428;53.580;-1.666;2022-08-03T19:11:40;21.30;54.30
33988;DHT22;37428;53.580;-1.666;2022-08-03T19:14:54;21.20;54.30
33988;DHT22;37428;53.580;-1.666;2022-08-03T19:18:04;21.20;54.60
33988;DHT22;37428;53.580;-1.666;2022-08-03T19:21:27;21.10;54.70
33988;DHT22;37428;53.580;-1.666;2022-08-03T19:24:47;21.10;54.90
33988;DHT22;37428;53.580;-1.666;2022-08-03T19:27:53;21.00;55.20
33988;DHT22;37428;53.580;-1.666;2022-08-03T19:31:01;21.00;55.30
33988;DHT22;37428;53.580;-1.666;2022-08-03T19:34:04;20.90;55.90
33988;DHT22;37428;53.580;-1.666;2022-08-03T19:37:25;20.90;55.90
33988;DHT22;37428;53.580;-1.666;2022-08-03T19:40:32;20.90;55.80
33988;DHT22;37428;53.580;-1.666;2022-08-03T19:43:49;20.90;56.00
33988;DHT22;37428;53.580;-1.666;2022-08-03T19:47:10;20.90;56.00
33988;DHT22;37428;53.580;-1.666;2022-08-03T19:50:20;20.90;56.20
33988;DHT22;37428;53.580;-1.666;2022-08-03T19:54:08;20.80;56.50
33988;DHT22;37428;53.580;-1.666;2022-08-03T19:56:54;20.80;56.50
33988;DHT22;37428;53.580;-1.666;2022-08-03T19:59:56;20.70;56.80
33988;DHT22;37428;53.580;-1.666;2022-08-03T20:04:35;20.60;57.10
33988;DHT22;37428;53.580;-1.666;2022-08-03T20:06:46;20.50;56.60
33988;DHT22;37428;53.580;-1.666;2022-08-03T20:09:52;20.40;56.00
33988;DHT22;37428;53.580;-1.666;2022-08-03T20:13:14;20.30;55.50
33988;DHT22;37428;53.580;-1.666;2022-08-03T20:16:36;20.20;54.90
33988;DHT22;37428;53.580;-1.666;2022-08-03T20:19:38;20.10;54.70
33988;DHT22;37428;53.580;-1.666;2022-08-03T20:22:43;20.10;54.40
33988;DHT22;37428;53.580;-1.666;2022-08-03T20:25:57;20.00;53.60
33988;DHT22;37428;53.580;-1.666;2022-08-03T20:29:04;20.00;53.70
33988;DHT22;37428;53.580;-1.666;2022-08-03T20:32:16;20.00;54.00
33988;DHT22;37428;53.580;-1.666;2022-08-03T20:35:28;19.90;53.30
33988;DHT22;37428;53.580;-1.666;2022-08-03T20:38:33;19.80;53.40
33988;DHT22;37428;53.580;-1.666;2022-08-03T20:41:38;19.80;53.20
33988;DHT22;37428;53.580;-1.666;2022-08-03T20:44:48;19.70;53.80
33988;DHT22;37428;53.580;-1.666;2022-08-03T20:47:51;19.70;53.70
33988;DHT22;37428;53.580;-1.666;2022-08-03T20:51:00;19.60;53.90
33988;DHT22;37428;53.580;-1.666;2022-08-03T20:54:04;19.50;54.20
33988;DHT22;37428;53.580;-1.666;2022-08-03T20:57:08;19.40;54.70
33988;DHT22;37428;53.580;-1.666;2022-08-03T21:00:13;19.30;54.90
33988;DHT22;37428;53.580;-1.666;2022-08-03T21:03:18;19.30;54.90
33988;DHT22;37428;53.580;-1.666;2022-08-03T21:06:23;19.20;55.60
33988;DHT22;37428;53.580;-1.666;2022-08-03T21:09:36;19.10;55.70
33988;DHT22;37428;53.580;-1.666;2022-08-03T21:12:46;19.00;56.40
33988;DHT22;37428;53.580;-1.666;2022-08-03T21:15:51;19.00;56.80
33988;DHT22;37428;53.580;-1.666;2022-08-03T21:18:58;19.00;57.20
33988;DHT22;37428;53.580;-1.666;2022-08-03T21:22:07;19.00;57.20
33988;DHT22;37428;53.580;-1.666;2022-08-03T21:25:30;19.00;57.40
33988;DHT22;37428;53.580;-1.666;2022-08-03T21:28:36;18.90;57.60
33988;DHT22;37428;53.580;-1.666;2022-08-03T21:31:42;18.80;58.00
33988;DHT22;37428;53.580;-1.666;2022-08-03T21:34:44;18.80;58.30
33988;DHT22;37428;53.580;-1.666;2022-08-03T21:37:51;18.70;58.50